Time;durP1;ratioP1;P1;durP2;ratioP2;P2;SDS_P1;SDS_P2;PMS_P1;PMS_P2;Temp;Humidity;BMP_temperature;BMP_pressure;BME280_temperature;BME280_humidity;BME280_pressure;Samples;Min_cycle;Max_cycle;Signal;HPM_P1;HPM_P2
2023/12/16 00:01:08;;;;;;;0.30;0.20;;;4.40;99.90;;;;;;5088423;28;20255;-74
2023/12/16 00:03:34;;;;;;;0.30;0.20;;;4.40;99.90;;;;;;5090799;28;20204;-80
2023/12/16 00:06:00;;;;;;;0.30;0.20;;;4.40;99.90;;;;;;5088756;28;20384;-73
2023/12/16 00:08:25;;;;;;;0.30;0.20;;;4.40;99.90;;;;;;5089201;28;20360;-80
2023/12/16 00:10:51;;;;;;;0.30;0.20;;;4.40;99.90;;;;;;5088654;28;20208;-74
2023/12/16 00:13:17;;;;;;;0.30;0.20;;;4.40;99.90;;;;;;5090416;28;20243;-74
2023/12/16 00:15:42;;;;;;;0.30;0.20;;;4.40;99.90;;;;;;5089658;28;20580;-79
2023/12/16 00:18:08;;;;;;;0.30;0.20;;;4.30;99.90;;;;;;5090563;28;20258;-74
2023/12/16 00:20:34;;;;;;;0.30;0.20;;;4.30;99.90;;;;;;5090261;28;20508;-79
2023/12/16 00:23:01;;;;;;;0.30;0.22;;;4.30;99.90;;;;;;5088397;28;20224;-80
2023/12/16 00:25:26;;;;;;;0.30;0.20;;;4.30;99.90;;;;;;5088496;28;20173;-80
2023/12/16 00:27:52;;;;;;;0.30;0.30;;;4.30;99.90;;;;;;5088681;28;20215;-80
2023/12/16 00:30:18;;;;;;;0.30;0.30;;;4.30;99.90;;;;;;5089584;28;20196;-74
2023/12/16 00:32:43;;;;;;;0.30;0.20;;;4.30;99.90;;;;;;5089728;28;20184;-80
2023/12/16 00:35:09;;;;;;;0.30;0.20;;;4.30;99.90;;;;;;5087852;28;20263;-74
2023/12/16 00:37:36;;;;;;;0.30;0.20;;;4.30;99.90;;;;;;5089770;28;20202;-74
2023/12/16 00:40:03;;;;;;;0.30;0.20;;;4.20;99.90;;;;;;5089474;28;20172;-80
2023/12/16 00:42:29;;;;;;;0.30;0.20;;;4.20;99.90;;;;;;5088675;28;20232;-80
2023/12/16 00:44:56;;;;;;;0.30;0.30;;;4.10;99.90;;;;;;5089302;28;20172;-80
2023/12/16 00:47:22;;;;;;;0.30;0.20;;;4.10;99.90;;;;;;5089891;28;20177;-74
2023/12/16 00:49:47;;;;;;;0.30;0.20;;;4.10;99.90;;;;;;5089516;28;20301;-80
2023/12/16 00:52:13;;;;;;;0.30;0.20;;;4.10;99.90;;;;;;5088365;28;20693;-80
2023/12/16 00:54:39;;;;;;;0.30;0.20;;;4.00;99.90;;;;;;5088266;28;20219;-74
2023/12/16 00:57:04;;;;;;;0.30;0.20;;;4.00;99.90;;;;;;5088096;28;20184;-81
2023/12/16 00:59:30;;;;;;;0.30;0.20;;;4.00;99.90;;;;;;5088698;28;20197;-74
2023/12/16 01:01:56;;;;;;;0.30;0.30;;;3.90;99.90;;;;;;5089817;28;20224;-80
2023/12/16 01:04:21;;;;;;;0.30;0.20;;;3.90;99.90;;;;;;5092845;28;20646;-74
2023/12/16 01:06:47;;;;;;;0.30;0.20;;;3.90;99.90;;;;;;5091802;28;20258;-80
2023/12/16 01:09:13;;;;;;;0.30;0.23;;;3.80;99.90;;;;;;5093611;28;20233;-74
2023/12/16 01:11:40;;;;;;;0.30;0.20;;;3.80;99.90;;;;;;5093184;28;20185;-79
2023/12/16 01:14:06;;;;;;;0.30;0.20;;;3.70;99.90;;;;;;5092319;28;20200;-80
2023/12/16 01:16:32;;;;;;;0.30;0.20;;;3.60;99.90;;;;;;5093467;28;20172;-75
2023/12/16 01:18:57;;;;;;;0.30;0.20;;;3.60;99.90;;;;;;5093113;28;20475;-80
2023/12/16 01:21:23;;;;;;;0.30;0.20;;;3.60;99.90;;;;;;5093226;28;20214;-75
2023/12/16 01:23:48;;;;;;;0.30;0.20;;;3.60;99.90;;;;;;5092053;28;20224;-80
2023/12/16 01:26:14;;;;;;;0.30;0.20;;;3.60;99.90;;;;;;5091966;28;20176;-78
2023/12/16 01:28:40;;;;;;;0.30;0.20;;;3.60;99.90;;;;;;5093613;28;20203;-73
2023/12/16 01:31:05;;;;;;;0.30;0.20;;;3.50;99.90;;;;;;5092798;28;20254;-79
2023/12/16 01:33:31;;;;;;;0.30;0.30;;;3.50;99.90;;;;;;5093546;28;20220;-73
2023/12/16 01:35:57;;;;;;;0.30;0.30;;;3.50;99.90;;;;;;5092719;28;20226;-74
2023/12/16 01:38:23;;;;;;;0.30;0.30;;;3.50;99.90;;;;;;5092037;28;20283;-74
2023/12/16 01:40:49;;;;;;;0.30;0.30;;;3.50;99.90;;;;;;5091704;28;20688;-73
2023/12/16 01:43:14;;;;;;;0.30;0.20;;;3.40;99.90;;;;;;5093558;28;20265;-74
2023/12/16 01:45:40;;;;;;;0.30;0.30;;;3.40;99.90;;;;;;5092742;28;20173;-78
2023/12/16 01:48:08;;;;;;;0.30;0.23;;;3.40;99.90;;;;;;5091765;28;20675;-74
2023/12/16 01:50:34;;;;;;;0.30;0.20;;;3.40;99.90;;;;;;5092652;28;20745;-80
2023/12/16 01:53:01;;;;;;;0.30;0.20;;;3.30;99.90;;;;;;5092695;28;20262;-80
2023/12/16 01:55:27;;;;;;;0.30;0.25;;;3.30;99.90;;;;;;5092681;28;20169;-80
2023/12/16 01:57:55;;;;;;;0.30;0.20;;;3.30;99.90;;;;;;5091488;28;20200;-80
2023/12/16 02:00:23;;;;;;;0.30;0.20;;;3.30;99.90;;;;;;5092664;28;20177;-74
2023/12/16 02:02:49;;;;;;;0.30;0.20;;;3.30;99.90;;;;;;5091572;28;20283;-80
2023/12/16 02:05:15;;;;;;;0.30;0.20;;;3.30;99.90;;;;;;5091096;28;20177;-80
2023/12/16 02:07:41;;;;;;;0.30;0.20;;;3.20;99.90;;;;;;5091913;28;20418;-80
2023/12/16 02:10:08;;;;;;;0.30;0.30;;;3.30;99.90;;;;;;5090437;28;20454;-80
2023/12/16 02:12:34;;;;;;;0.30;0.22;;;3.20;99.90;;;;;;5092535;28;20246;-80
2023/12/16 02:15:00;;;;;;;0.30;0.20;;;3.20;99.90;;;;;;5091857;28;20177;-73
2023/12/16 02:17:26;;;;;;;0.30;0.20;;;3.20;99.90;;;;;;5090946;28;20232;-80
2023/12/16 02:19:54;;;;;;;0.30;0.20;;;3.20;99.90;;;;;;5092120;28;20196;-80
2023/12/16 02:22:20;;;;;;;0.30;0.30;;;3.10;99.90;;;;;;5090644;28;20415;-80
2023/12/16 02:24:47;;;;;;;0.30;0.20;;;3.10;99.90;;;;;;5091966;28;20703;-74
2023/12/16 02:27:13;;;;;;;0.30;0.30;;;3.10;99.90;;;;;;5092053;28;20204;-80
2023/12/16 02:29:38;;;;;;;0.30;0.27;;;3.10;99.90;;;;;;5090792;28;20721;-80
2023/12/16 02:32:05;;;;;;;0.30;0.30;;;3.10;99.90;;;;;;5090416;28;20177;-81
2023/12/16 02:34:31;;;;;;;0.30;0.30;;;3.10;99.90;;;;;;5091728;28;20628;-74
2023/12/16 02:36:56;;;;;;;0.30;0.30;;;3.10;99.90;;;;;;5090242;28;20272;-81
2023/12/16 02:39:22;;;;;;;0.30;0.30;;;3.10;99.90;;;;;;5090769;28;20201;-80
2023/12/16 02:41:48;;;;;;;0.30;0.30;;;3.00;99.90;;;;;;5090160;28;20173;-74
2023/12/16 02:44:13;;;;;;;0.30;0.30;;;3.00;99.90;;;;;;5092040;28;20424;-80
2023/12/16 02:46:39;;;;;;;0.30;0.30;;;3.00;99.90;;;;;;5091775;28;20175;-81
2023/12/16 02:49:05;;;;;;;0.30;0.30;;;3.00;99.90;;;;;;5090451;28;20264;-78
2023/12/16 02:51:30;;;;;;;0.30;0.30;;;3.00;99.90;;;;;;5091896;28;20777;-80
2023/12/16 02:53:56;;;;;;;0.30;0.20;;;2.90;99.90;;;;;;5090019;28;20732;-73
2023/12/16 02:56:22;;;;;;;0.30;0.30;;;2.90;99.90;;;;;;5091713;28;20169;-74
2023/12/16 02:58:49;;;;;;;0.30;0.30;;;2.80;99.90;;;;;;5090445;28;20208;-80
2023/12/16 03:01:15;;;;;;;0.30;0.30;;;2.80;99.90;;;;;;5091421;28;20412;-80
2023/12/16 03:03:41;;;;;;;0.30;0.30;;;2.80;99.90;;;;;;5091909;28;20599;-80
2023/12/16 03:06:08;;;;;;;0.30;0.30;;;2.80;99.90;;;;;;5089692;28;20217;-73
2023/12/16 03:08:34;;;;;;;0.30;0.30;;;2.80;99.90;;;;;;5090108;28;20872;-80
2023/12/16 03:11:02;;;;;;;0.30;0.30;;;2.80;99.90;;;;;;5089967;28;20262;-73
2023/12/16 03:13:28;;;;;;;0.30;0.30;;;2.80;99.90;;;;;;5090399;28;20731;-73
2023/12/16 03:15:53;;;;;;;0.30;0.30;;;2.70;99.90;;;;;;5090746;28;20173;-80
2023/12/16 03:18:19;;;;;;;0.30;0.20;;;2.70;99.90;;;;;;5090099;28;20252;-73
2023/12/16 03:20:45;;;;;;;0.30;0.30;;;2.70;99.90;;;;;;5090936;28;20542;-79
2023/12/16 03:23:10;;;;;;;0.30;0.30;;;2.70;99.90;;;;;;5090014;28;20892;-80
2023/12/16 03:25:37;;;;;;;0.30;0.30;;;2.70;99.90;;;;;;5089015;28;20237;-74
2023/12/16 03:28:03;;;;;;;0.30;0.20;;;2.80;99.90;;;;;;5089929;28;20200;-81
2023/12/16 03:30:29;;;;;;;0.30;0.30;;;2.80;99.90;;;;;;5090492;28;20200;-74
2023/12/16 03:32:55;;;;;;;0.30;0.30;;;2.80;99.90;;;;;;5091236;28;20666;-79
2023/12/16 03:35:21;;;;;;;0.30;0.30;;;2.80;99.90;;;;;;5089238;28;20168;-77
2023/12/16 03:37:47;;;;;;;0.30;0.30;;;2.80;99.90;;;;;;5089291;28;20195;-73
2023/12/16 03:40:13;;;;;;;0.30;0.30;;;2.80;99.90;;;;;;5090606;28;20156;-73
2023/12/16 03:42:39;;;;;;;0.30;0.30;;;2.80;99.90;;;;;;5090940;28;20230;-74
2023/12/16 03:45:05;;;;;;;0.30;0.30;;;2.80;99.90;;;;;;5089177;28;20777;-74
2023/12/16 03:47:32;;;;;;;0.30;0.20;;;2.80;99.90;;;;;;5090764;28;20180;-73
2023/12/16 03:49:57;;;;;;;0.30;0.30;;;2.80;99.90;;;;;;5090161;28;20607;-80
2023/12/16 03:52:23;;;;;;;0.30;0.20;;;2.80;99.90;;;;;;5089297;28;20176;-74
2023/12/16 03:54:49;;;;;;;0.30;0.30;;;2.70;99.90;;;;;;5090100;28;20248;-74
2023/12/16 03:57:15;;;;;;;0.30;0.30;;;2.70;99.90;;;;;;5090445;28;20180;-80
2023/12/16 03:59:41;;;;;;;0.30;0.30;;;2.70;99.90;;;;;;5090392;28;20184;-74
2023/12/16 04:02:07;;;;;;;0.30;0.30;;;2.70;99.90;;;;;;5088844;28;20368;-80
2023/12/16 04:04:33;;;;;;;0.30;0.20;;;2.70;99.90;;;;;;5088792;28;20400;-80
2023/12/16 04:07:00;;;;;;;0.30;0.30;;;2.70;99.90;;;;;;5088713;28;20169;-80
2023/12/16 04:09:30;;;;;;;0.30;0.30;;;2.70;99.90;;;;;;5088034;28;20568;-74
2023/12/16 04:11:56;;;;;;;0.30;0.30;;;2.70;99.90;;;;;;5089952;28;20167;-73
2023/12/16 04:14:21;;;;;;;0.30;0.30;;;2.70;99.90;;;;;;5088812;28;20279;-81
2023/12/16 04:16:47;;;;;;;0.30;0.30;;;2.70;99.90;;;;;;5089778;28;20243;-80
2023/12/16 04:19:13;;;;;;;0.30;0.20;;;2.70;99.90;;;;;;5090246;28;20235;-73
2023/12/16 04:21:39;;;;;;;0.30;0.30;;;2.70;99.90;;;;;;5088600;28;20556;-80
2023/12/16 04:24:05;;;;;;;0.30;0.20;;;2.70;99.90;;;;;;5088914;28;20431;-80
2023/12/16 04:26:31;;;;;;;0.30;0.30;;;2.70;99.90;;;;;;5089773;28;20173;-74
2023/12/16 04:28:57;;;;;;;0.30;0.30;;;2.70;99.90;;;;;;5088454;28;20219;-74
2023/12/16 04:31:22;;;;;;;0.30;0.20;;;2.70;99.90;;;;;;5089719;28;20439;-73
2023/12/16 04:33:49;;;;;;;0.30;0.30;;;2.60;99.90;;;;;;5088672;28;20205;-81
2023/12/16 04:36:16;;;;;;;0.30;0.20;;;2.60;99.90;;;;;;5086788;28;20245;-73
2023/12/16 04:38:43;;;;;;;0.30;0.30;;;2.60;99.90;;;;;;5088771;28;20691;-73
2023/12/16 04:41:12;;;;;;;0.30;0.30;;;2.60;99.90;;;;;;5089497;28;20269;-80
2023/12/16 04:43:39;;;;;;;0.30;0.20;;;2.50;99.90;;;;;;5090050;28;20204;-80
2023/12/16 04:46:05;;;;;;;0.30;0.30;;;2.50;99.90;;;;;;5089495;28;20172;-76
2023/12/16 04:48:31;;;;;;;0.30;0.30;;;2.50;99.90;;;;;;5088768;28;20196;-80
2023/12/16 04:50:57;;;;;;;0.30;0.20;;;2.50;99.90;;;;;;5088885;28;20430;-73
2023/12/16 04:53:23;;;;;;;0.30;0.22;;;2.50;99.90;;;;;;5088479;28;20200;-80
2023/12/16 04:55:48;;;;;;;0.30;0.30;;;2.40;99.90;;;;;;5089356;28;20175;-80
2023/12/16 04:58:14;;;;;;;0.30;0.30;;;2.40;99.90;;;;;;5089893;28;20200;-74
2023/12/16 05:00:40;;;;;;;0.30;0.30;;;2.40;99.90;;;;;;5088291;28;20189;-74
2023/12/16 05:03:05;;;;;;;0.30;0.30;;;2.40;99.90;;;;;;5089360;28;20214;-74
2023/12/16 05:05:31;;;;;;;0.30;0.30;;;2.50;99.90;;;;;;5088133;28;20176;-79
2023/12/16 05:07:56;;;;;;;0.30;0.30;;;2.50;99.90;;;;;;5088371;28;20553;-74
2023/12/16 05:10:22;;;;;;;0.30;0.30;;;2.50;99.90;;;;;;5089099;28;20621;-74
2023/12/16 05:12:48;;;;;;;0.30;0.20;;;2.50;99.90;;;;;;5088491;28;20188;-83
2023/12/16 05:15:13;;;;;;;0.30;0.30;;;2.50;99.90;;;;;;5088770;28;20177;-76
2023/12/16 05:17:39;;;;;;;0.30;0.30;;;2.40;99.90;;;;;;5087731;28;20232;-80
2023/12/16 05:20:05;;;;;;;0.30;0.20;;;2.40;99.90;;;;;;5089051;28;20187;-74
2023/12/16 05:22:33;;;;;;;0.30;0.30;;;2.40;99.90;;;;;;5089370;28;20638;-74
2023/12/16 05:25:02;;;;;;;0.30;0.20;;;2.40;99.90;;;;;;5087614;28;20625;-80
2023/12/16 05:27:28;;;;;;;0.30;0.30;;;2.40;99.90;;;;;;5089474;28;20629;-73
2023/12/16 05:29:54;;;;;;;0.30;0.30;;;2.40;99.90;;;;;;5089056;28;20244;-73
2023/12/16 05:32:20;;;;;;;0.30;0.30;;;2.40;99.90;;;;;;5087824;28;20269;-74
2023/12/16 05:34:46;;;;;;;0.30;0.30;;;2.40;99.90;;;;;;5087499;28;20563;-74
2023/12/16 05:37:11;;;;;;;0.30;0.20;;;2.30;99.90;;;;;;5088480;28;20559;-73
2023/12/16 05:39:37;;;;;;;0.30;0.30;;;2.30;99.90;;;;;;5089163;28;20197;-80
2023/12/16 05:42:03;;;;;;;0.30;0.20;;;2.30;99.90;;;;;;5088916;28;20157;-80
2023/12/16 05:44:28;;;;;;;0.30;0.30;;;2.30;99.90;;;;;;5089222;28;20222;-73
2023/12/16 05:46:54;;;;;;;0.30;0.30;;;2.30;99.90;;;;;;5087579;28;20172;-74
2023/12/16 05:49:19;;;;;;;0.30;0.30;;;2.20;99.90;;;;;;5091993;28;20192;-80
2023/12/16 05:51:45;;;;;;;0.30;0.30;;;2.20;99.90;;;;;;5090896;28;20172;-80
2023/12/16 05:54:11;;;;;;;0.30;0.30;;;2.10;99.90;;;;;;5092969;28;20268;-74
2023/12/16 05:56:36;;;;;;;0.30;0.30;;;2.00;99.90;;;;;;5093010;28;20172;-80
2023/12/16 05:59:02;;;;;;;0.30;0.30;;;2.00;99.90;;;;;;5091485;28;20204;-73
2023/12/16 06:01:28;;;;;;;0.30;0.20;;;1.90;99.90;;;;;;5092334;28;20260;-76
2023/12/16 06:03:53;;;;;;;0.30;0.20;;;1.90;99.90;;;;;;5092915;28;20570;-74
2023/12/16 06:06:19;;;;;;;0.30;0.20;;;1.90;99.90;;;;;;5090912;28;20263;-73
2023/12/16 06:08:45;;;;;;;0.30;0.20;;;1.80;99.90;;;;;;5091191;28;20570;-73
2023/12/16 06:11:14;;;;;;;0.30;0.20;;;1.70;99.90;;;;;;5090940;28;20231;-80
2023/12/16 06:13:41;;;;;;;0.30;0.30;;;1.70;99.90;;;;;;5090305;28;20264;-80
2023/12/16 06:16:10;;;;;;;0.30;0.30;;;1.70;99.90;;;;;;5090573;28;20180;-80
2023/12/16 06:18:36;;;;;;;0.30;0.30;;;1.70;99.90;;;;;;5090754;28;20570;-75
2023/12/16 06:21:01;;;;;;;0.30;0.30;;;1.70;99.90;;;;;;5091646;28;20179;-79
2023/12/16 06:23:30;;;;;;;0.30;0.30;;;1.70;99.90;;;;;;5090647;28;20507;-73
2023/12/16 06:25:55;;;;;;;0.30;0.30;;;1.70;99.90;;;;;;5091977;28;20961;-74
2023/12/16 06:28:21;;;;;;;0.30;0.30;;;1.60;99.90;;;;;;5091096;28;20287;-79
2023/12/16 06:30:47;;;;;;;0.30;0.30;;;1.60;99.90;;;;;;5091635;28;20639;-73
2023/12/16 06:33:13;;;;;;;0.30;0.30;;;1.60;99.90;;;;;;5092462;28;20503;-80
2023/12/16 06:35:39;;;;;;;0.30;0.30;;;1.60;99.90;;;;;;5090397;28;20180;-79
2023/12/16 06:38:04;;;;;;;0.30;0.30;;;1.60;99.90;;;;;;5091743;28;20261;-80
2023/12/16 06:40:31;;;;;;;0.30;0.30;;;1.70;99.90;;;;;;5089301;28;20188;-73
2023/12/16 06:42:57;;;;;;;0.30;0.30;;;1.70;99.90;;;;;;5091836;28;20407;-80
2023/12/16 06:45:23;;;;;;;0.30;0.30;;;1.70;99.90;;;;;;5091746;28;20167;-79
2023/12/16 06:47:49;;;;;;;0.30;0.30;;;1.80;99.90;;;;;;5090718;28;21875;-73
2023/12/16 06:50:14;;;;;;;0.30;0.20;;;1.80;99.90;;;;;;5090289;28;20238;-77
2023/12/16 06:52:40;;;;;;;0.30;0.30;;;1.80;99.90;;;;;;5092145;28;20234;-73
2023/12/16 06:55:06;;;;;;;2.47;2.40;;;1.90;99.90;;;;;;5090074;28;20176;-75
2023/12/16 06:57:32;;;;;;;0.30;0.30;;;1.90;99.90;;;;;;5091733;28;20414;-81
2023/12/16 06:59:58;;;;;;;0.30;0.30;;;2.00;99.90;;;;;;5089042;28;20263;-80
2023/12/16 07:02:24;;;;;;;0.30;0.20;;;2.00;99.90;;;;;;5090258;28;20192;-81
2023/12/16 07:04:50;;;;;;;0.30;0.30;;;2.00;99.90;;;;;;5090040;28;20653;-74
2023/12/16 07:07:16;;;;;;;0.30;0.30;;;2.00;99.90;;;;;;5089770;28;20279;-74
2023/12/16 07:09:41;;;;;;;0.30;0.20;;;2.00;99.90;;;;;;5091112;28;20196;-80
2023/12/16 07:12:08;;;;;;;0.30;0.30;;;2.00;99.90;;;;;;5091441;28;20267;-73
2023/12/16 07:14:34;;;;;;;0.30;0.30;;;2.10;99.90;;;;;;5089238;28;20261;-74
2023/12/16 07:17:00;;;;;;;0.30;0.20;;;2.10;99.90;;;;;;5088804;28;20546;-81
2023/12/16 07:19:27;;;;;;;0.30;0.30;;;2.20;99.90;;;;;;5087570;28;20452;-80
2023/12/16 07:21:53;;;;;;;0.30;0.30;;;2.30;99.90;;;;;;5088709;28;20169;-81
2023/12/16 07:24:19;;;;;;;0.30;0.30;;;2.30;99.90;;;;;;5106500;28;20197;-80
2023/12/16 07:26:45;;;;;;;0.30;0.30;;;2.50;99.90;;;;;;5088752;28;20572;-74
2023/12/16 07:29:10;;;;;;;0.93;0.93;;;2.90;99.90;;;;;;5088988;28;20203;-74
2023/12/16 07:31:36;;;;;;;0.30;0.30;;;3.40;99.90;;;;;;5087558;28;20236;-75
2023/12/16 07:34:02;;;;;;;1.70;1.70;;;3.90;99.90;;;;;;5088108;28;20208;-74
2023/12/16 07:36:28;;;;;;;0.30;0.30;;;4.30;99.90;;;;;;5088482;28;20193;-79
2023/12/16 07:38:55;;;;;;;0.30;0.30;;;4.80;99.90;;;;;;5085887;28;20963;-81
2023/12/16 07:41:21;;;;;;;0.30;0.30;;;5.20;99.90;;;;;;5088226;28;20184;-74
2023/12/16 07:43:47;;;;;;;0.30;0.30;;;5.60;99.90;;;;;;5088040;28;20537;-74
2023/12/16 07:46:13;;;;;;;1.45;1.40;;;6.00;99.90;;;;;;5087964;28;20180;-74
2023/12/16 07:48:39;;;;;;;0.30;0.30;;;6.40;99.90;;;;;;5088250;28;20208;-74
2023/12/16 07:51:05;;;;;;;1.60;1.60;;;7.00;99.90;;;;;;5088835;28;20334;-80
2023/12/16 07:53:30;;;;;;;0.30;0.30;;;7.70;99.90;;;;;;5089565;28;20200;-80
2023/12/16 07:55:56;;;;;;;4.33;3.60;;;8.20;99.90;;;;;;5089373;28;20776;-78
2023/12/16 07:58:22;;;;;;;0.75;0.75;;;8.80;99.90;;;;;;5090649;28;20192;-80
2023/12/16 08:00:48;;;;;;;0.53;0.33;;;9.50;99.90;;;;;;5089994;28;20583;-75
2023/12/16 08:03:13;;;;;;;7.90;7.57;;;10.30;99.90;;;;;;5088509;28;20200;-80
2023/12/16 08:05:42;;;;;;;1.90;1.80;;;11.10;99.90;;;;;;5088950;28;20196;-81
2023/12/16 08:08:08;;;;;;;1.83;1.73;;;11.80;99.90;;;;;;5088208;28;21036;-75
2023/12/16 08:10:34;;;;;;;9.17;8.73;;;12.30;99.90;;;;;;5088283;28;20288;-81
2023/12/16 08:12:59;;;;;;;0.40;0.30;;;12.70;99.90;;;;;;5090385;28;20271;-80
2023/12/16 08:15:25;;;;;;;1.37;1.27;;;13.10;99.90;;;;;;5087683;28;20413;-75
2023/12/16 08:17:51;;;;;;;0.50;0.50;;;13.50;99.90;;;;;;5089910;28;20304;-75
2023/12/16 08:20:16;;;;;;;2.77;2.67;;;13.70;99.90;;;;;;5090176;28;20267;-79
2023/12/16 08:22:42;;;;;;;2.57;2.13;;;13.90;99.90;;;;;;5088845;28;20180;-81
2023/12/16 08:25:09;;;;;;;8.20;7.60;;;14.10;99.90;;;;;;5086718;28;20551;-75
2023/12/16 08:27:35;;;;;;;9.60;1.80;;;14.20;99.90;;;;;;5087064;28;20248;-81
2023/12/16 08:30:00;;;;;;;2.50;2.40;;;14.40;99.90;;;;;;5088307;28;20540;-75
2023/12/16 08:32:26;;;;;;;0.40;0.30;;;14.60;99.90;;;;;;5088719;28;20234;-81
2023/12/16 08:34:51;;;;;;;0.40;0.30;;;14.70;99.50;;;;;;5088062;28;20558;-80
2023/12/16 08:37:17;;;;;;;0.40;0.40;;;14.80;99.50;;;;;;5088686;28;20184;-80
2023/12/16 08:39:43;;;;;;;1.37;1.27;;;15.00;99.50;;;;;;5089138;28;20196;-76
2023/12/16 08:42:08;;;;;;;4.80;4.37;;;15.20;99.00;;;;;;5089564;28;20531;-81
2023/12/16 08:44:34;;;;;;;2.60;2.40;;;15.70;98.00;;;;;;5089983;28;20400;-81
2023/12/16 08:47:00;;;;;;;0.80;0.80;;;16.10;97.20;;;;;;5088514;28;20169;-78
2023/12/16 08:49:26;;;;;;;0.67;0.67;;;16.60;96.30;;;;;;5089653;28;20417;-80
2023/12/16 08:51:54;;;;;;;0.53;0.53;;;17.10;95.60;;;;;;5089169;28;20413;-76
2023/12/16 08:54:19;;;;;;;2.40;2.30;;;17.50;95.10;;;;;;5089698;28;20189;-81
2023/12/16 08:56:45;;;;;;;0.40;0.30;;;18.00;93.80;;;;;;5089413;28;20416;-76
2023/12/16 08:59:11;;;;;;;4.80;3.00;;;18.40;93.30;;;;;;5089281;28;20246;-76
2023/12/16 09:01:36;;;;;;;0.80;0.80;;;18.80;92.00;;;;;;5089277;28;20399;-81
2023/12/16 09:04:02;;;;;;;0.30;0.20;;;19.10;90.70;;;;;;5088283;28;20209;-81
2023/12/16 09:06:28;;;;;;;0.40;0.40;;;19.50;89.00;;;;;;5088230;28;20171;-76
2023/12/16 09:08:54;;;;;;;2.13;2.03;;;19.80;88.50;;;;;;5088315;28;20671;-81
2023/12/16 09:11:19;;;;;;;0.60;0.60;;;20.10;87.70;;;;;;5089470;28;20225;-77
2023/12/16 09:13:45;;;;;;;1.27;1.17;;;20.40;86.10;;;;;;5087120;28;20547;-76
2023/12/16 09:16:11;;;;;;;0.40;0.20;;;20.60;84.60;;;;;;5087660;28;20175;-79
2023/12/16 09:18:37;;;;;;;0.40;0.30;;;20.80;83.50;;;;;;5089265;28;20717;-76
2023/12/16 09:21:02;;;;;;;0.40;0.30;;;20.80;82.10;;;;;;5087670;28;20180;-81
2023/12/16 09:23:28;;;;;;;0.40;0.30;;;20.80;81.00;;;;;;5092200;28;20555;-76
2023/12/16 09:25:54;;;;;;;0.40;0.20;;;20.70;79.70;;;;;;5091704;28;20176;-76
2023/12/16 09:28:20;;;;;;;0.73;0.73;;;20.60;79.60;;;;;;5093631;28;20665;-76
2023/12/16 09:30:45;;;;;;;0.40;0.30;;;20.50;80.30;;;;;;5091383;28;20480;-78
2023/12/16 09:33:11;;;;;;;1.37;1.30;;;20.50;80.30;;;;;;5091889;28;20218;-76
2023/12/16 09:35:37;;;;;;;0.40;0.30;;;20.60;79.10;;;;;;5091756;28;20172;-76
2023/12/16 09:38:03;;;;;;;1.07;1.07;;;20.80;78.50;;;;;;5093423;28;20207;-76
2023/12/16 09:40:29;;;;;;;0.60;0.60;;;20.70;79.00;;;;;;5092450;28;20172;-76
2023/12/16 09:43:05;;;;;;;2.03;1.87;;;20.60;80.00;;;;;;5092732;28;20522;-78
2023/12/16 09:45:31;;;;;;;0.50;0.50;;;20.40;80.10;;;;;;5092924;28;20396;-76
2023/12/16 09:47:57;;;;;;;1.57;1.57;;;20.20;80.70;;;;;;5093269;28;20451;-75
2023/12/16 09:50:22;;;;;;;1.67;1.57;;;19.90;81.80;;;;;;5091484;28;20509;-76
2023/12/16 09:52:48;;;;;;;2.33;0.87;;;19.80;81.80;;;;;;5092880;28;20456;-75
2023/12/16 09:55:14;;;;;;;0.40;0.30;;;19.60;81.50;;;;;;5091276;28;20471;-75
2023/12/16 09:57:42;;;;;;;2.23;1.70;;;19.40;81.80;;;;;;5091600;28;20457;-76
2023/12/16 10:00:09;;;;;;;0.80;0.80;;;19.20;82.10;;;;;;5092568;28;20408;-81
2023/12/16 10:02:34;;;;;;;1.33;1.23;;;18.90;83.10;;;;;;5092750;28;20427;-79
2023/12/16 10:05:01;;;;;;;0.40;0.20;;;18.50;81.80;;;;;;5091073;28;20431;-80
2023/12/16 10:07:27;;;;;;;0.50;0.50;;;18.00;82.50;;;;;;5091543;28;20213;-75
2023/12/16 10:09:53;;;;;;;4.80;4.20;;;17.60;83.90;;;;;;5091015;28;20556;-81
2023/12/16 10:12:19;;;;;;;0.80;0.80;;;17.10;84.30;;;;;;5092315;28;20636;-81
2023/12/16 10:14:49;;;;;;;0.37;0.30;;;16.70;85.70;;;;;;5091902;28;20699;-82
2023/12/16 10:17:19;;;;;;;0.90;0.90;;;16.30;85.60;;;;;;5091870;28;20529;-75
2023/12/16 10:19:46;;;;;;;0.40;0.40;;;15.80;86.50;;;;;;5090771;28;20437;-75
2023/12/16 10:22:17;;;;;;;0.77;0.77;;;15.40;88.60;;;;;;5092185;28;20947;-75
2023/12/16 10:24:44;;;;;;;0.73;0.73;;;15.10;88.80;;;;;;5092184;28;20424;-75
2023/12/16 10:27:10;;;;;;;2.30;2.20;;;14.90;89.90;;;;;;5091874;28;20403;-75
2023/12/16 10:29:39;;;;;;;0.90;0.90;;;14.60;90.10;;;;;;5091056;28;20425;-75
2023/12/16 10:32:08;;;;;;;0.40;0.40;;;14.40;90.20;;;;;;5092040;28;20384;-75
2023/12/16 10:34:33;;;;;;;0.40;0.40;;;14.30;90.40;;;;;;5090710;28;20981;-75
2023/12/16 10:37:09;;;;;;;0.83;0.83;;;14.00;90.10;;;;;;5090482;28;20457;-75
2023/12/16 10:39:36;;;;;;;0.83;0.83;;;13.80;91.40;;;;;;5090068;28;20819;-77
2023/12/16 10:42:02;;;;;;;2.17;2.07;;;13.60;91.30;;;;;;5091569;28;20401;-80
2023/12/16 10:44:28;;;;;;;0.40;0.20;;;13.40;91.50;;;;;;5090434;28;20411;-75
2023/12/16 10:46:55;;;;;;;1.80;1.70;;;13.20;91.50;;;;;;5091513;28;20391;-81
2023/12/16 10:49:31;;;;;;;1.23;1.23;;;13.00;91.90;;;;;;5090647;28;20425;-80
2023/12/16 10:52:11;;;;;;;2.73;2.63;;;12.80;91.90;;;;;;5091223;28;20416;-75
2023/12/16 10:54:40;;;;;;;0.53;0.50;;;12.60;92.50;;;;;;5090345;28;20492;-81
2023/12/16 10:57:29;;;;;;;0.30;0.20;;;12.40;92.30;;;;;;5090159;28;20955;-75
2023/12/16 11:00:06;;;;;;;0.40;0.23;;;12.20;92.90;;;;;;5069892;28;20777;-75
2023/12/16 11:02:37;;;;;;;0.63;0.63;;;12.10;93.40;;;;;;5090298;28;20424;-75
2023/12/16 11:05:14;;;;;;;0.53;0.53;;;12.00;93.90;;;;;;5090213;28;20953;-75
2023/12/16 11:07:41;;;;;;;2.43;2.30;;;11.90;94.00;;;;;;5090129;28;20523;-75
2023/12/16 11:10:08;;;;;;;0.40;0.30;;;11.80;93.80;;;;;;5089852;28;20472;-81
2023/12/16 11:12:35;;;;;;;16.30;1.50;;;11.60;93.30;;;;;;5090226;28;20421;-81
2023/12/16 11:15:04;;;;;;;0.30;0.20;;;11.50;93.20;;;;;;5090610;28;20250;-75
2023/12/16 11:17:42;;;;;;;0.60;0.60;;;11.40;93.20;;;;;;5090223;28;20224;-80
2023/12/16 11:20:21;;;;;;;0.30;0.20;;;11.30;93.20;;;;;;5090318;28;20168;-81
2023/12/16 11:22:51;;;;;;;0.32;0.28;;;11.20;93.30;;;;;;5090021;28;20180;-81
2023/12/16 11:25:18;;;;;;;3.70;1.75;;;11.10;94.10;;;;;;5089548;28;20209;-80
2023/12/16 11:27:47;;;;;;;0.30;0.20;;;11.10;93.90;;;;;;5091028;28;20190;-81
2023/12/16 11:30:15;;;;;;;0.30;0.30;;;11.10;94.30;;;;;;5090910;28;20202;-81
2023/12/16 11:32:44;;;;;;;0.30;0.20;;;11.10;93.90;;;;;;5091359;28;20173;-80
2023/12/16 11:35:10;;;;;;;0.40;0.28;;;11.10;94.50;;;;;;5088642;28;20535;-75
2023/12/16 11:37:36;;;;;;;0.57;0.57;;;11.10;94.40;;;;;;5089103;28;20180;-81
2023/12/16 11:40:07;;;;;;;0.67;0.67;;;11.20;94.50;;;;;;5088488;28;20176;-80
2023/12/16 11:42:52;;;;;;;1.55;1.50;;;11.20;94.40;;;;;;5071213;28;20282;-81
2023/12/16 11:45:39;;;;;;;1.98;1.85;;;11.20;94.40;;;;;;5087333;28;20183;-75
2023/12/16 11:48:06;;;;;;;24.27;5.15;;;11.30;94.50;;;;;;5089312;28;20291;-80
2023/12/16 11:50:34;;;;;;;0.30;0.20;;;11.30;94.50;;;;;;5089267;28;20192;-75
2023/12/16 11:53:00;;;;;;;0.95;0.95;;;11.40;94.30;;;;;;5090631;28;20200;-75
2023/12/16 11:55:26;;;;;;;0.30;0.20;;;11.40;93.90;;;;;;5089022;28;20396;-81
2023/12/16 11:57:53;;;;;;;0.70;0.70;;;11.50;94.00;;;;;;5089061;28;20258;-75
2023/12/16 12:00:19;;;;;;;0.30;0.20;;;11.50;93.80;;;;;;5090430;28;20699;-75
2023/12/16 12:02:47;;;;;;;1.58;1.10;;;11.60;93.90;;;;;;5090452;28;20198;-75
2023/12/16 12:05:14;;;;;;;1.15;1.15;;;11.60;94.30;;;;;;5088896;28;20168;-81
2023/12/16 12:07:40;;;;;;;1.25;0.70;;;11.60;94.30;;;;;;5090256;28;20180;-81
2023/12/16 12:10:05;;;;;;;0.30;0.20;;;11.60;94.30;;;;;;5088707;28;20748;-80
2023/12/16 12:12:31;;;;;;;0.30;0.20;;;11.60;93.20;;;;;;5090478;28;20433;-81
2023/12/16 12:14:57;;;;;;;0.83;0.77;;;11.70;93.60;;;;;;5089528;28;20376;-75
2023/12/16 12:17:23;;;;;;;0.43;0.43;;;11.70;93.60;;;;;;5088855;28;20334;-75
2023/12/16 12:19:49;;;;;;;1.70;1.63;;;11.70;93.50;;;;;;5089318;28;20189;-75
2023/12/16 12:22:14;;;;;;;0.95;0.95;;;11.70;93.50;;;;;;5088271;28;20177;-81
2023/12/16 12:24:40;;;;;;;0.30;0.20;;;11.80;94.00;;;;;;5088629;28;20189;-76
2023/12/16 12:27:08;;;;;;;0.40;0.30;;;11.80;93.10;;;;;;5089635;28;20192;-80
2023/12/16 12:30:06;;;;;;;0.30;0.20;;;11.80;92.70;;;;;;5088733;28;20192;-75
2023/12/16 12:32:33;;;;;;;0.30;0.20;;;11.90;92.10;;;;;;5090339;28;20541;-75
2023/12/16 12:35:07;;;;;;;0.30;0.20;;;11.90;93.00;;;;;;5089552;28;20619;-81
2023/12/16 12:37:45;;;;;;;0.32;0.30;;;11.80;92.20;;;;;;5088778;28;20956;-75
2023/12/16 12:40:13;;;;;;;0.30;0.20;;;11.80;92.30;;;;;;5089138;28;20197;-75
2023/12/16 12:42:54;;;;;;;0.30;0.20;;;11.80;92.50;;;;;;5088384;28;20472;-81
2023/12/16 12:45:30;;;;;;;2.15;2.05;;;11.80;92.70;;;;;;5089655;28;20426;-81
2023/12/16 12:48:12;;;;;;;0.30;0.20;;;11.70;92.30;;;;;;5087965;28;20200;-81
2023/12/16 12:50:38;;;;;;;0.40;0.30;;;11.70;92.30;;;;;;5067071;28;20332;-75